Latest Weather Observations for Oakey

IDQ60901

Issued at 11:31 am EST Thursday 21 March 2019 (issued every 10 minutes, with the page automatically refreshed every 10 minutes)

About weather observations | Map of Brisbane area stations | Latest observations for Brisbane area | Other Formats
Station Details ID: 041359 Name: OAKEY AERO Lat: -27.40 Lon: 151.74 Height: 405.69 m
Data from the previous 72 hours. | See also: Recent months at Oakey
Date/Time
EST
Temp
°C
App
Temp
°C
Dew
Point
°C
Rel
Hum
%
Delta-T
°C
Wind Press
QNH
hPa
Press
MSL
hPa
Rain since
9am
mm
Dir  Spd
km/h
Gust
km/h
Spd
kts
Gust
kts
21/11:00am 29.4 30.7 17.2 47 7.8 NE 6 11 3 6 1015.6 1013.6 0.0
21/10:30am 28.5 29.5 17.7 52 7.0 ENE 9 19 5 10 1015.7 1013.7 0.0
21/10:00am 27.3 27.4 18.3 58 5.8 NNE 15 26 8 14 1015.9 1013.9 0.0
21/09:30am 26.5 26.1 18.9 63 4.9 NE 19 24 10 13 1016.2 1014.2 0.0
21/09:00am 25.8 25.4 19.4 67 4.2 ENE 20 26 11 14 1016.2 1014.2 0.0
21/08:30am 24.6 24.4 19.7 74 3.2 ENE 20 26 11 14 1016.0 1014.0 0.0
21/08:00am 23.4 23.1 19.5 79 2.5 ENE 20 26 11 14 1015.9 1013.9 0.0
21/07:30am 22.7 22.8 20.4 87 1.5 ENE 20 26 11 14 1015.6 1013.6 0.0
21/07:00am 21.6 21.8 20.1 91 1.0 ENE 19 22 10 12 1015.2 1013.3 0.0
21/06:30am 20.9 21.9 20.2 96 0.5 ENE 15 19 8 10 1014.9 1013.0 0.0
21/06:00am 20.5 21.7 19.8 96 0.5 ENE 13 15 7 8 1014.7 1012.7 0.0
21/05:30am 20.6 21.8 19.8 95 0.5 ENE 13 15 7 8 1014.2 1012.2 0.0
21/05:00am 20.6 21.4 19.9 96 0.5 E 15 19 8 10 1013.8 1011.8 0.0
21/04:30am 20.6 21.5 20.1 97 0.3 ENE 15 17 8 9 1013.6 1011.6 0.0
21/04:00am 20.7 21.6 20.0 96 0.5 ENE 15 17 8 9 1013.5 1011.5 0.0
21/03:30am 20.7 21.9 20.0 96 0.5 ENE 13 17 7 9 1013.4 1011.4 0.0
21/03:00am 20.6 21.8 19.9 96 0.5 ENE 13 15 7 8 1013.4 1011.4 0.0
21/02:30am 20.9 22.2 20.2 96 0.5 ENE 13 17 7 9 1013.5 1011.5 0.0
21/02:00am 20.8 22.0 20.0 95 0.5 E 13 15 7 8 1013.4 1011.4 0.0
21/01:30am 21.1 22.7 19.9 93 0.8 E 11 15 6 8 1013.7 1011.7 0.0
21/01:00am 21.4 22.0 20.2 93 0.8 E 17 20 9 11 1013.9 1011.9 0.0
21/12:30am 21.4 22.7 20.2 93 0.8 E 13 17 7 9 1014.1 1012.1 0.0
21/12:00am 21.9 23.4 20.5 92 0.9 E 13 17 7 9 1014.3 1012.3 0.0
 
Date/Time
EST
Temp
°C
App
Temp
°C
Dew
Point
°C
Rel
Hum
%
Delta-T
°C
Wind Press
QNH
hPa
Press
MSL
hPa
Rain since
9am
mm
Dir  Spd
km/h
Gust
km/h
Spd
kts
Gust
kts
20/11:30pm 21.9 23.8 20.5 92 0.9 ENE 11 15 6 8 1014.4 1012.4 0.0
20/11:00pm 22.3 23.9 20.8 91 1.0 E 13 17 7 9 1014.5 1012.5 0.0
20/10:30pm 22.6 23.5 20.9 90 1.1 E 17 20 9 11 1014.4 1012.4 0.0
20/10:00pm 23.1 24.1 21.0 88 1.4 E 17 22 9 12 1014.4 1012.4 0.0
20/09:30pm 23.2 23.3 21.1 88 1.4 E 22 28 12 15 1014.1 1012.1 0.0
20/09:00pm 23.5 23.5 21.0 86 1.7 E 22 30 12 16 1013.8 1011.8 0.0
20/08:30pm 23.2 23.5 19.6 80 2.3 ESE 17 17 9 9 1013.5 1011.5 0.0
20/08:00pm 22.0 21.9 16.1 69 3.6 ENE 11 22 6 12 1013.1 1011.1 0.0
20/07:30pm 23.9 24.6 14.6 56 5.6 NNW 4 6 2 3 1012.3 1010.3 0.0
20/07:00pm 26.1 25.4 13.2 44 7.7 W 9 11 5 6 1011.9 1009.9 0.0
20/06:30pm 26.8 26.1 13.2 43 8.1 W 9 11 5 6 1011.6 1009.6 0.0
20/06:00pm 28.2 26.8 12.1 37 9.5 W 11 13 6 7 1011.3 1009.3 0.0
20/05:30pm 30.6 28.1 11.1 30 11.4 W 15 20 8 11 1011.2 1009.2 0.0
20/05:00pm 31.6 28.2 9.2 25 12.8 W 17 24 9 13 1011.0 1009.0 0.0
20/04:30pm 32.0 28.3 9.5 25 13.0 WSW 19 24 10 13 1011.0 1009.0 0.0
20/04:00pm 32.1 29.8 11.8 29 12.1 WSW 15 22 8 12 1010.9 1008.9 0.0
20/03:30pm 31.7 27.7 10.4 27 12.4 WNW 22 26 12 14 1010.9 1008.9 0.0
20/03:00pm 31.7 28.1 9.8 26 12.7 WSW 19 26 10 14 1010.9 1008.9 0.0
20/02:30pm 31.6 28.4 9.8 26 12.6 WNW 17 32 9 17 1011.1 1009.1 0.0
20/02:00pm 31.5 28.6 12.3 31 11.5 W 19 35 10 19 1011.4 1009.4 0.0
20/01:30pm 31.2 27.0 11.1 29 11.8 WNW 24 32 13 17 1011.9 1009.9 0.0
20/01:00pm 31.4 29.0 12.7 32 11.3 NW 17 30 9 16 1012.2 1010.2 0.0
20/12:30pm 31.1 28.6 13.4 34 10.8 WNW 19 30 10 16 1012.7 1010.8 0.0
20/12:00pm 31.2 28.8 14.4 36 10.4 WNW 20 30 11 16 1013.1 1011.1 0.0
20/11:30am 30.5 28.5 15.4 40 9.5 W 20 30 11 16 1013.5 1011.5 0.0
20/11:00am 30.2 29.2 18.0 48 7.9 WNW 20 28 11 15 1013.9 1011.9 0.0
20/10:30am 28.2 28.3 19.2 58 5.9 W 17 20 9 11 1014.1 1012.1 0.0
20/10:00am 27.1 28.1 20.2 66 4.6 W 15 20 8 11 1014.4 1012.4 0.0
20/09:30am 26.3 27.6 19.4 66 4.5 WNW 11 17 6 9 1014.5 1012.5 0.0
20/09:00am 25.1 26.1 19.5 71 3.7 W 13 19 7 10 1014.5 1012.5 0.0
20/08:30am 23.9 25.7 18.8 73 3.3 WSW 7 13 4 7 1014.3 1012.3 0.0
20/08:00am 22.2 23.7 18.0 77 2.7 SSE 7 9 4 5 1014.1 1012.1 0.0
20/07:30am 21.3 24.3 18.5 84 1.8 CALM 0 0 0 0 1013.7 1011.7 0.0
20/07:00am 19.7 21.5 18.2 91 0.9 ENE 6 7 3 4 1013.4 1011.4 0.0
20/06:30am 17.5 18.0 16.5 94 0.6 NE 9 11 5 6 1013.1 1011.1 0.0
20/06:00am 17.5 18.1 15.8 90 1.0 ESE 7 9 4 5 1012.7 1010.8 0.0
20/05:30am 17.1 17.2 15.4 90 1.0 SSE 9 15 5 8 1012.4 1010.4 0.0
20/05:00am 17.3 17.2 14.9 86 1.4 SSE 9 11 5 6 1012.1 1010.1 0.0
20/04:30am 17.7 18.0 15.9 89 1.1 SSE 9 13 5 7 1012.0 1010.0 0.0
20/04:00am 17.9 18.2 16.1 89 1.1 SSE 9 11 5 6 1011.8 1009.8 0.0
20/03:30am 18.2 18.4 15.8 86 1.4 S 9 11 5 6 1011.8 1009.8 0.0
20/03:00am 18.1 18.1 16.3 89 1.1 ESE 11 13 6 7 1011.6 1009.6 0.0
20/02:30am 18.5 18.4 15.9 85 1.6 ESE 11 13 6 7 1011.7 1009.7 0.0
20/02:00am 18.3 18.4 15.4 83 1.7 E 9 11 5 6 1011.9 1009.9 0.0
20/01:30am 18.2 18.3 15.5 84 1.6 ESE 9 9 5 5 1012.2 1010.2 0.0
20/01:00am 18.3 19.0 15.7 85 1.6 SSE 6 7 3 4 1012.4 1010.4 0.0
20/12:30am 18.9 19.1 15.8 82 1.9 ENE 9 11 5 6 1012.6 1010.6 0.0
20/12:00am 18.8 19.1 15.9 83 1.8 ESE 9 11 5 6 1012.6 1010.6 0.0
 
Date/Time
EST
Temp
°C
App
Temp
°C
Dew
Point
°C
Rel
Hum
%
Delta-T
°C
Wind Press
QNH
hPa
Press
MSL
hPa
Rain since
9am
mm
Dir  Spd
km/h
Gust
km/h
Spd
kts
Gust
kts
19/11:30pm 19.2 19.6 16.4 84 1.7 E 9 11 5 6 1012.6 1010.6 0.0
19/11:00pm 19.4 19.4 16.2 82 1.9 E 11 13 6 7 1012.8 1010.9 0.0
19/10:30pm 20.3 21.6 17.1 82 2.0 ENE 6 6 3 3 1013.2 1011.2 0.0
19/10:00pm 20.4 21.6 17.4 83 1.9 E 7 7 4 4 1013.2 1011.2 0.0
19/09:30pm 20.6 20.8 16.8 79 2.3 NE 11 11 6 6 1013.3 1011.3 0.0
19/09:00pm 21.6 23.0 17.8 79 2.4 NE 7 9 4 5 1013.4 1011.4 0.0
19/08:30pm 22.1 23.5 17.7 76 2.8 NE 7 9 4 5 1013.2 1011.2 0.0
19/08:00pm 22.4 24.8 16.9 71 3.4 CALM 0 6 0 3 1012.8 1010.9 0.0
19/07:30pm 24.6 25.2 15.2 55 5.7 W 6 6 3 3 1012.6 1010.6 0.0
19/07:00pm 24.8 25.1 15.1 54 5.9 WNW 7 9 4 5 1012.3 1010.3 0.0
19/06:30pm 26.2 25.2 12.3 42 8.2 WSW 9 11 5 6 1011.9 1009.9 0.0
19/06:00pm 28.2 25.5 11.7 36 9.7 WSW 17 20 9 11 1011.5 1009.5 0.0
19/05:30pm 30.0 26.4 10.5 30 11.3 WSW 20 26 11 14 1011.2 1009.2 0.0
19/05:00pm 30.6 27.6 10.5 29 11.7 SW 17 24 9 13 1010.9 1008.9 0.0
19/04:30pm 30.7 28.0 11.6 31 11.3 WNW 17 22 9 12 1010.7 1008.7 0.0
19/04:00pm 30.9 28.1 11.3 30 11.6 W 17 26 9 14 1010.7 1008.7 0.0
19/03:30pm 31.1 28.2 11.0 29 11.8 WSW 17 30 9 16 1010.9 1008.9 0.0
19/03:00pm 31.0 29.2 13.3 34 10.8 WNW 15 24 8 13 1011.1 1009.1 0.0
19/02:30pm 31.1 28.2 11.0 29 11.8 W 17 32 9 17 1011.4 1009.4 0.0
19/02:00pm 30.3 27.9 11.3 31 11.2 W 15 20 8 11 1011.8 1009.8 0.0
19/01:30pm 30.3 27.9 12.7 34 10.6 WNW 17 28 9 15 1012.1 1010.1 0.0
19/01:00pm 29.4 27.7 12.3 34 10.2 W 13 24 7 13 1012.6 1010.6 0.0
19/12:30pm 29.5 29.2 14.5 40 9.2 WSW 9 15 5 8 1013.1 1011.1 0.0
19/12:00pm 28.7 27.2 14.1 40 8.9 WNW 15 22 8 12 1013.6 1011.6 0.0
19/11:30am 27.8 26.3 14.1 43 8.3 WNW 15 20 8 11 1014.2 1012.2 0.0
19/11:00am 27.4 27.3 16.1 50 7.1 W 11 20 6 11 1014.7 1012.7 0.0
19/10:30am 26.5 26.1 15.2 49 7.0 W 11 17 6 9 1014.9 1013.0 0.0
19/10:00am 25.7 25.8 16.5 56 5.8 W 11 17 6 9 1015.1 1013.2 0.0
19/09:30am 24.2 25.6 18.6 71 3.6 WNW 9 13 5 7 1015.2 1013.3 0.0
19/09:00am 22.8 24.0 18.3 76 2.9 W 9 11 5 6 1015.1 1013.2 0.0
19/08:30am 21.7 23.3 18.3 81 2.2 WNW 7 11 4 6 1014.9 1013.0 0.0
19/08:00am 20.9 23.0 18.1 84 1.8 NE 4 7 2 4 1014.8 1012.8 0.0
19/07:30am 20.1 21.8 18.6 91 1.0 ENE 7 7 4 4 1014.5 1012.5 0.0
19/07:00am 18.7 20.5 18.4 98 0.2 ENE 6 9 3 5 1014.2 1012.2 0.0
19/06:30am 17.1 18.3 16.8 98 0.2 E 6 7 3 4 1014.0 1012.0 0.0
19/06:00am 16.3 17.2 16.0 98 0.2 ENE 6 9 3 5 1013.7 1011.7 0.0
19/05:30am 16.3 17.0 16.0 98 0.2 SE 7 9 4 5 1013.3 1011.3 0.0
19/05:00am 16.6 17.4 16.3 98 0.2 SSE 7 9 4 5 1013.0 1011.0 0.0
19/04:30am 16.8 17.6 16.3 97 0.3 SE 7 9 4 5 1013.0 1011.0 0.0
19/04:00am 17.4 19.5 17.1 98 0.2 S 2 9 1 5 1013.0 1011.0 0.0
19/03:30am 17.2 18.4 16.9 98 0.2 SE 6 6 3 3 1013.2 1011.2 0.0
19/03:00am 17.4 18.5 17.1 98 0.2 SSE 7 9 4 5 1013.2 1011.2 0.0
19/02:30am 17.8 19.0 17.3 97 0.3 SE 7 7 4 4 1013.1 1011.1 0.0
19/02:00am 18.1 20.0 17.6 97 0.3 S 4 7 2 4 1013.4 1011.4 0.0
19/01:30am 18.2 19.7 17.7 97 0.3 NE 6 9 3 5 1013.5 1011.5 0.0
19/01:00am 18.5 20.1 17.9 96 0.4 NNE 6 9 3 5 1013.7 1011.7 0.0
19/12:30am 18.7 19.8 17.9 95 0.5 NNE 9 11 5 6 1014.2 1012.2 0.0
19/12:00am 19.3 22.3 18.5 95 0.5 CALM 0 0 0 0 1014.5 1012.5 0.0
 
Date/Time
EST
Temp
°C
App
Temp
°C
Dew
Point
°C
Rel
Hum
%
Delta-T
°C
Wind Press
QNH
hPa
Press
MSL
hPa
Rain since
9am
mm
Dir  Spd
km/h
Gust
km/h
Spd
kts
Gust
kts
18/11:30pm 19.6 21.3 18.6 94 0.6 E 7 9 4 5 1014.5 1012.5 0.0
18/11:00pm 19.9 21.3 18.7 93 0.8 ENE 9 9 5 5 1014.5 1012.5 0.0
18/10:30pm 20.1 21.6 18.8 92 0.8 E 9 11 5 6 1014.6 1012.6 0.0
18/10:00pm 20.7 22.3 19.2 91 1.0 E 9 11 5 6 1014.7 1012.7 0.0
18/09:30pm 21.5 23.7 19.1 86 1.5 ENE 6 9 3 5 1014.5 1012.5 0.0
18/09:00pm 21.6 23.2 19.2 86 1.5 ENE 9 11 5 6 1014.4 1012.4 0.0
18/08:30pm 22.5 23.4 19.3 82 2.1 E 13 15 7 8 1014.3 1012.3 0.0
18/08:00pm 22.4 24.9 19.8 85 1.7 NE 6 15 3 8 1013.8 1011.8 0.0
18/07:30pm 23.1 26.9 20.1 83 2.0 CALM 0 0 0 0 1013.3 1011.3 0.0
18/07:00pm 24.5 27.7 18.9 71 3.6 CALM 0 6 0 3 1012.8 1010.9 0.0
18/06:30pm 24.9 26.7 18.8 69 3.9 WNW 7 9 4 5 1012.4 1010.4 0.0
18/06:00pm 26.0 28.1 19.4 67 4.3 WNW 7 9 4 5 1012.0 1010.0 0.0
18/05:30pm 27.0 27.9 18.3 59 5.6 WNW 11 13 6 7 1011.7 1009.7 0.0
18/05:00pm 27.7 26.8 16.9 51 6.9 W 17 22 9 12 1011.8 1009.8 0.0
18/04:30pm 29.0 28.1 15.9 45 8.2 WNW 15 20 8 11 1011.6 1009.6 0.0
18/04:00pm 29.1 29.5 16.3 46 8.1 W 9 17 5 9 1011.5 1009.5 0.0
18/03:30pm 28.7 27.6 16.3 47 7.8 WNW 17 26 9 14 1011.5 1009.5 0.0
18/03:00pm 28.7 27.2 15.2 43 8.4 WNW 17 24 9 13 1011.6 1009.6 0.0
18/02:30pm 28.2 26.2 16.5 49 7.4 WNW 22 32 12 17 1011.7 1009.7 0.0
18/02:00pm 27.8 25.4 16.4 50 7.2 W 24 32 13 17 1012.4 1010.4 0.0
18/01:30pm 27.3 25.0 16.6 52 6.7 W 24 32 13 17 1013.0 1011.0 0.0
18/01:00pm 25.6 22.6 15.9 55 6.0 WNW 26 37 14 20 1013.6 1011.6 0.0
18/12:30pm 25.8 25.3 21.5 77 2.9 W 26 37 14 20 1013.9 1011.9 0.0
18/12:00pm 26.5 26.1 20.1 68 4.2 W 22 30 12 16 1013.8 1011.8 0.0

Latest Capital City Observations: Canberra | Sydney | Melbourne | Brisbane | Adelaide | Perth | Hobart | Darwin

Other formats

Comma delimited format used in spreadsheet applications
http://www.bom.gov.au/fwo/IDQ60901/IDQ60901.94552.axf

JavaScript Object Notation format (JSON) in row-major order
http://www.bom.gov.au/fwo/IDQ60901/IDQ60901.94552.json

Data quality

Most of these data are generated automatically and are frequently updated. Quality checks on data are not normally performed. It is possible for incorrect values to appear. Refer to information at About Latest Weather Observations and please check the disclaimer before using these data.